Latest Coastal Weather Observations for Gove Airport

IDD60701

Issued at 2:01 am CST Wednesday 22 February 2017 (issued every 10 minutes, with the page automatically refreshed every 10 minutes)

About coastal observations | Map of coastal stations | Coastal observations for NT | Marine services | Other Formats
Station Details ID: 014508 Name: GOVE AIRPORT Lat: -12.27 Lon: 136.82 Height: 51.6 m
Data from the previous 72 hours. | See also: Recent months at Gove Airport
Date/Time
CST
Temp
°C
Wind Pressure Rain since
9am
mm
Weather Cloud Vis
km
Sea
Height
m
Swell
Dir  Spd
kts
Gust
kts
hPa Trend Height
m
Period
s
Dir
22/01:30am 25.5 CALM 0 0 1009.2 - 0.0 - Partly cloudy 10 - - - -
22/01:00am 25.5 CALM 0 0 1009.4 - 0.0 - Partly cloudy 10 - - - -
22/12:30am 25.4 CALM 0 0 1009.5 - 0.0 - - 10 - - - -
22/12:00am 25.6 CALM 0 0 1009.7 R 0.0 - - 10 - - - -
 
Date/Time
CST
Temp
°C
Wind Pressure Rain since
9am
mm
Weather Cloud Vis
km
Sea
Height
m
Swell
Dir  Spd
kts
Gust
kts
hPa Trend Height
m
Period
s
Dir
21/11:30pm 25.6 CALM 0 0 1009.8 - 0.0 - - 10 - - - -
21/11:00pm 25.6 CALM 0 0 1010.0 - 0.0 - - 10 - - - -
21/10:30pm 25.8 CALM 0 0 1010.0 - 0.0 - - 10 - - - -
21/10:00pm 26.3 SSW 2 4 1009.7 - 0.0 - - 10 - - - -
21/09:30pm 26.5 WSW 3 6 1009.4 - 0.0 - - 10 - - - -
21/09:00pm 27.3 NNW 7 8 1008.8 F 0.0 - - 10 - - - -
21/08:30pm 27.3 NNW 7 8 1008.6 - 0.0 - - 10 - - - -
21/08:00pm 27.4 NNW 6 7 1008.5 - 0.0 - - 10 - - - -
21/07:30pm 27.9 NW 6 8 1008.4 - 0.0 - - 10 - - - -
21/07:00pm 28.4 NW 7 9 1008.2 - 0.0 - - 10 - - - -
21/06:30pm 29.4 NW 9 12 1007.9 - 0.0 - - 10 - - - -
21/06:00pm 30.4 NW 9 13 1007.4 S 0.0 - - 10 - - - -
21/05:30pm 30.6 NW 11 14 1006.8 - 0.0 - - 10 - - - -
21/05:00pm 30.6 NNW 12 19 1006.5 - 0.0 - - 10 - - - -
21/04:30pm 31.1 NNW 13 18 1006.5 - 0.0 - Mostly clear 10 - - - -
21/04:00pm 31.2 NNW 15 20 1006.6 - 0.0 - Mostly clear 10 - - - -
21/03:30pm 31.5 NNW 16 23 1006.9 - 0.0 - Mostly clear 10 - - - -
21/03:00pm 31.7 NNW 15 20 1007.3 F 0.0 - Mostly clear 10 - - - -
21/02:30pm 31.7 NNW 16 21 1007.7 - 0.0 - Mostly clear 10 - - - -
21/02:00pm 31.5 NNW 14 18 1008.1 - 0.0 - Mostly clear 10 - - - -
21/01:30pm 31.0 NNW 12 17 1008.4 - 0.0 - Mostly clear 10 - - - -
21/01:00pm 31.2 NNW 12 17 1009.0 - 0.0 - Mostly clear 10 - - - -
21/12:30pm 31.4 NW 11 16 1009.4 - 0.0 - Mostly clear 10 - - - -
21/12:00pm 31.1 NW 12 17 1009.7 R 0.0 - Mostly clear 10 - - - -
21/11:30am 30.7 NW 11 16 1010.0 - 0.0 - Mostly clear 10 - - - -
21/11:00am 30.1 NNW 11 14 1010.3 - 0.0 - Mostly clear 10 - - - -
21/10:30am 29.6 WNW 8 11 1010.5 - 0.0 - Mostly clear 10 - - - -
21/10:00am 28.8 W 7 11 1010.6 - 0.0 - Mostly clear 10 - - - -
21/09:30am 28.6 WNW 7 11 1010.7 - 0.0 - - 10 - - - -
21/09:00am 28.3 WNW 6 9 1010.4 R 0.4 - Mostly clear 10 - - - -
21/08:30am 27.8 WNW 7 11 1010.1 - 0.4 - - 10 - - - -
21/08:00am 26.8 WNW 5 7 1009.6 - 0.4 - Partly cloudy 10 - - - -
21/07:30am 25.8 W 4 5 1009.2 - 0.4 - Partly cloudy 10 - - - -
21/07:00am 24.7 WNW 4 5 1008.8 - 0.4 - Partly cloudy 10 - - - -
21/06:30am 23.8 WNW 4 5 1008.6 - 0.4 - Partly cloudy 10 - - - -
21/06:00am 23.6 NW 5 6 1008.5 R 0.4 - Partly cloudy 10 - - - -
21/05:30am 23.7 WNW 4 5 1008.0 - 0.4 - - 10 - - - -
21/05:00am 23.7 W 3 5 1007.5 - 0.4 - Partly cloudy 10 - - - -
21/04:30am 24.1 W 4 5 1007.2 - 0.4 - Partly cloudy 10 - - - -
21/04:00am 24.3 WSW 5 7 1006.9 - 0.4 - Partly cloudy 10 - - - -
21/03:30am 24.3 W 4 6 1006.8 - 0.4 - Partly cloudy 10 - - - -
21/03:00am 24.4 W 4 6 1006.9 R 0.4 - - 10 - - - -
21/02:30am 24.6 W 5 7 1007.1 - 0.4 - Partly cloudy 10 - - - -
21/02:00am 24.8 W 4 6 1007.4 - 0.4 - Cloudy 10 - - - -
21/01:30am 24.5 W 4 6 1007.7 - 0.4 - Partly cloudy 10 - - - -
21/01:00am 24.5 WNW 4 5 1007.9 - 0.4 - - 10 - - - -
21/12:30am 24.8 WNW 4 6 1008.2 - 0.4 - - 10 - - - -
21/12:00am 25.2 W 5 7 1008.1 F 0.4 - - 10 - - - -
 
Date/Time
CST
Temp
°C
Wind Pressure Rain since
9am
mm
Weather Cloud Vis
km
Sea
Height
m
Swell
Dir  Spd
kts
Gust
kts
hPa Trend Height
m
Period
s
Dir
20/11:30pm 25.0 W 4 6 1008.3 - 0.4 - - 10 - - - -
20/11:00pm 25.1 W 3 5 1008.4 - 0.4 - - 10 - - - -
20/10:30pm 25.4 WNW 4 6 1008.5 - 0.4 - - 10 - - - -
20/10:00pm 25.4 WNW 4 5 1008.5 - 0.4 - - 10 - - - -
20/09:30pm 25.4 WNW 4 5 1008.4 - 0.4 - Partly cloudy 10 - - - -
20/09:00pm 25.7 NNW 4 5 1008.2 R 0.4 - Cloudy 10 - - - -
20/08:30pm 25.7 CALM 0 0 1007.9 - 0.4 - Partly cloudy 10 - - - -
20/08:00pm 25.9 SW 2 4 1007.7 - 0.4 - Partly cloudy 10 - - - -
20/07:30pm 26.1 CALM 0 2 1007.4 - 0.4 - Partly cloudy 10 - - - -
20/07:15pm 26.1 W 4 7 1007.2 - 0.4 - Partly cloudy 10 - - - -
20/07:00pm 26.6 W 6 9 1007.0 - 0.4 - Partly cloudy 4 - - - -
20/06:56pm 27.4 WNW 5 9 1007.0 - 0.2 - Partly cloudy 6 - - - -
20/06:30pm 28.5 CALM 0 0 1006.5 - 0.2 - Partly cloudy 10 - - - -
20/06:00pm 28.6 NW 5 7 1006.1 R 0.2 - Cloudy 10 - - - -
20/05:30pm 29.1 NW 7 9 1005.5 - 0.2 - Partly cloudy 10 - - - -
20/05:00pm 29.3 NW 6 9 1005.2 - 0.2 - Partly cloudy 10 - - - -
20/04:30pm 29.5 NNW 8 10 1005.1 - 0.2 - Mostly clear 10 - - - -
20/04:00pm 29.6 NW 9 13 1005.2 - 0.2 - Partly cloudy 10 - - - -
20/03:30pm 29.8 NW 9 13 1005.1 - 0.2 - Partly cloudy 10 - - - -
20/03:00pm 29.5 NW 9 14 1005.0 R 0.2 - Mostly clear 10 - - - -
20/02:30pm 29.7 NW 10 13 1004.9 - 0.2 - Partly cloudy 10 - - - -
20/02:00pm 29.8 NW 9 15 1005.1 - 0.2 - Mostly clear 10 - - - -
20/01:30pm 29.6 NW 9 13 1005.6 - 0.2 - Mostly clear 10 - - - -
20/01:00pm 28.5 NW 9 13 1006.3 - 0.2 - Partly cloudy 10 - - - -
20/12:30pm 28.2 NW 8 12 1006.6 - 0.2 - Partly cloudy 10 - - - -
20/12:00pm 28.5 NW 9 13 1006.7 R 0.2 - Cloudy 10 - - - -
20/11:30am 28.4 WNW 7 11 1006.8 - 0.2 - Partly cloudy 10 - - - -
20/11:00am 27.9 NW 9 12 1006.9 - 0.2 - Partly cloudy 10 - - - -
20/10:30am 28.2 NW 8 12 1006.7 - 0.2 - Partly cloudy 10 - - - -
20/10:00am 27.4 NW 7 10 1006.7 - 0.0 - Partly cloudy 10 - - - -
20/09:30am 26.8 W 7 11 1007.0 - 0.0 - Mostly clear 10 - - - -
20/09:00am 26.9 W 8 13 1007.1 R 7.6 - Partly cloudy 10 - - - -
20/08:30am 26.1 NW 7 11 1007.3 - 7.6 - Mostly clear 10 - - - -
20/08:00am 24.9 WNW 5 7 1006.7 - 7.6 - Mostly clear 10 - - - -
20/07:30am 24.5 W 4 6 1006.1 - 7.6 - Mostly clear 10 - - - -
20/07:00am 24.2 W 5 7 1005.6 - 7.6 - - 10 - - - -
20/06:30am 24.2 WSW 8 11 1005.4 - 7.6 - - 10 - - - -
20/06:00am 24.3 W 7 11 1004.9 F 7.6 - Cloudy 10 - - - -
20/05:58am 24.3 W 7 11 1004.8 - 7.6 - Partly cloudy 10 - - - -
20/05:38am 24.5 W 8 16 1004.8 - 7.6 - Partly cloudy 6 - - - -
20/05:30am 24.7 W 6 11 1004.7 - 7.6 - Partly cloudy 10 - - - -
20/05:00am 24.5 WNW 7 11 1004.4 - 7.6 - Partly cloudy 10 - - - -
20/04:30am 24.5 W 6 9 1004.0 - 7.6 - Partly cloudy 10 - - - -
20/04:00am 24.5 WNW 7 10 1004.0 - 7.6 - - 10 - - - -
20/03:30am 24.6 WNW 7 11 1004.3 - 7.6 - - 10 - - - -
20/03:09am 24.7 W 7 11 1004.7 - 7.6 - Partly cloudy 10 - - - -
20/03:00am 24.8 W 7 10 1004.7 R 7.6 - Cloudy 10 - - - -
20/02:30am 24.9 WNW 8 13 1005.1 - 7.6 - Partly cloudy 10 - - - -
20/02:00am 24.8 WNW 6 13 1005.0 - 7.6 - Partly cloudy 10 - - - -
20/01:52am 24.7 WNW 6 13 1004.7 - 7.6 - Partly cloudy 10 - - - -
20/01:50am 24.7 WNW 5 9 1004.7 - 7.6 - Partly cloudy 10 - - - -
20/01:30am 24.8 WNW 7 11 1004.6 - 7.6 - Partly cloudy 10 - - - -
20/01:00am 25.0 NW 9 15 1005.1 - 7.4 - Partly cloudy 10 - - - -
20/12:50am 25.0 NW 8 12 1005.2 - 7.4 - Partly cloudy 9 - - - -
20/12:30am 25.0 NNW 9 11 1005.5 - 6.8 - Partly cloudy 10 - - - -
20/12:00am 25.1 NW 9 15 1005.9 R 6.8 Recent precip. Cloudy 10 - - - -
 
Date/Time
CST
Temp
°C
Wind Pressure Rain since
9am
mm
Weather Cloud Vis
km
Sea
Height
m
Swell
Dir  Spd
kts
Gust
kts
hPa Trend Height
m
Period
s
Dir
19/11:30pm 25.1 NW 8 11 1006.1 - 6.6 - Partly cloudy 10 - - - -
19/11:00pm 24.9 WNW 6 9 1005.9 - 6.6 - - 10 - - - -
19/10:38pm 24.9 W 6 11 1005.7 - 6.6 - Partly cloudy 10 - - - -
19/10:30pm 24.9 W 6 9 1005.6 - 6.6 - Partly cloudy 10 - - - -
19/10:08pm 24.5 WNW 6 9 1006.1 - 6.6 - Partly cloudy 10 - - - -
19/10:00pm 24.3 WNW 5 9 1005.9 - 6.6 - Partly cloudy 10 - - - -
19/09:30pm 24.3 WNW 4 5 1005.3 - 6.6 - Partly cloudy 10 - - - -
19/09:02pm 24.4 WNW 7 9 1005.6 - 6.6 - Partly cloudy 10 - - - -
19/09:00pm 24.4 WNW 7 9 1005.5 R 6.6 Recent precip. Cloudy 10 - - - -
19/08:30pm 24.7 W 8 11 1005.6 - 4.8 - Partly cloudy 5 - - - -
19/08:17pm 25.0 W 10 15 1005.2 - 4.6 - Partly cloudy 6 - - - -
19/08:00pm 25.8 WSW 8 15 1005.0 - 4.4 - Partly cloudy 10 - - - -
19/07:30pm 27.8 WNW 8 14 1004.5 - 4.4 - Cloudy 10 - - - -
19/07:00pm 27.8 NW 10 16 1004.1 - 4.4 - Cloudy 10 - - - -
19/06:30pm 27.8 NW 10 17 1003.5 - 4.4 - Cloudy 10 - - - -
19/06:00pm 27.8 NW 12 20 1003.4 S 4.4 - Mostly cloudy 10 - - - -
19/05:30pm 27.1 NW 13 19 1003.2 - 4.4 - Partly cloudy 7 - - - -
19/05:00pm 27.6 NW 15 23 1003.2 - 4.4 - Partly cloudy 10 - - - -
19/04:30pm 27.5 NW 13 21 1003.4 - 4.4 - Partly cloudy 10 - - - -
19/04:00pm 27.3 NW 18 27 1003.3 - 4.4 - Partly cloudy 10 - - - -
19/03:54pm 27.5 NW 15 27 1003.3 - 4.4 - Partly cloudy 10 - - - -
19/03:30pm 27.5 NW 15 21 1003.2 - 4.4 - Partly cloudy 10 - - - -
19/03:00pm 27.4 NW 14 20 1003.3 F 4.4 - Cloudy 10 - - - -
19/02:30pm 26.7 NW 12 15 1003.7 - 4.4 - Partly cloudy 10 - - - -
19/02:01pm 26.0 NW 9 13 1004.2 - 4.4 - Partly cloudy 10 - - - -
19/02:00pm 25.9 NW 9 13 1004.2 - 4.4 - Partly cloudy 10 - - - -
19/01:48pm 25.8 NW 9 13 1004.4 - 4.2 - Partly cloudy 10 - - - -
19/01:30pm 25.6 NW 11 16 1004.5 - 4.2 - Partly cloudy 10 - - - -
19/01:11pm 25.6 NW 12 18 1005.0 - 4.2 - Partly cloudy 9 - - - -
19/01:00pm 25.6 NW 14 22 1005.3 - 4.2 - Partly cloudy 6 - - - -
19/12:44pm 25.6 NW 13 21 1005.8 - 3.6 - Partly cloudy 5 - - - -
19/12:30pm 25.7 WNW 13 19 1005.8 - 2.0 - Partly cloudy 3 - - - -
19/12:14pm 27.0 NW 15 24 1005.8 - 0.6 - Partly cloudy 4 - - - -
19/12:00pm 29.5 NW 12 20 1005.7 F 0.0 - Cloudy 10 - - - -
19/11:30am 28.9 WNW 9 16 1006.1 - 0.0 - Partly cloudy 10 - - - -
19/11:00am 29.2 NW 13 19 1006.0 - 0.0 - Partly cloudy 10 - - - -
19/10:46am 28.9 NW 12 17 1006.1 - 0.0 - Partly cloudy 10 - - - -
19/10:30am 29.0 NW 11 17 1006.2 - 0.0 - Partly cloudy 10 - - - -
19/10:00am 27.4 NW 11 16 1006.4 - 0.0 - Partly cloudy 10 - - - -
19/09:30am 26.7 NW 10 13 1006.8 - 0.0 - Partly cloudy 10 - - - -
19/09:00am 26.4 NW 10 15 1007.0 F 11.4 - Cloudy 10 - - - -
19/08:30am 26.3 NW 9 14 1007.1 - 11.4 - Mostly clear 10 - - - -
19/08:00am 26.1 NW 10 13 1007.0 - 11.4 - Partly cloudy 10 - - - -
19/07:35am 25.7 NNW 11 14 1006.8 - 11.4 - Partly cloudy 10 - - - -
19/07:30am 25.6 NNW 10 13 1006.7 - 11.4 - Partly cloudy 10 - - - -
19/07:00am 25.2 NNW 9 12 1006.7 - 11.4 - Partly cloudy 10 - - - -
19/06:46am 25.0 NNW 8 10 1006.7 - 11.4 - Partly cloudy 10 - - - -
19/06:30am 24.7 NW 8 11 1006.2 - 11.4 - Partly cloudy 10 - - - -
19/06:00am 24.5 NNW 8 10 1005.6 F 11.4 - Mostly cloudy 10 - - - -
19/05:30am 24.2 NW 8 10 1005.0 - 11.4 - - 10 - - - -
19/05:00am 24.1 NNW 9 12 1004.7 - 11.4 - - 10 - - - -
19/04:30am 24.1 NNW 9 12 1004.6 - 11.4 - Partly cloudy 10 - - - -
19/04:00am 24.1 NNW 6 8 1004.5 - 11.0 - Partly cloudy 10 - - - -
19/03:59am 24.1 NNW 6 8 1004.5 - 11.0 - Partly cloudy 10 - - - -
19/03:40am 24.2 NNW 8 11 1005.0 - 11.0 - Partly cloudy 5 - - - -
19/03:30am 24.3 NW 7 9 1005.3 - 10.8 - Partly cloudy 8 - - - -
19/03:14am 24.0 WNW 5 8 1005.4 - 10.6 - Partly cloudy 10 - - - -
19/03:10am 24.0 WNW 5 7 1005.3 - 10.6 - Partly cloudy 7 - - - -
19/03:00am 23.9 WNW 5 9 1005.4 F 10.4 Rain Cloudy 2 - - - -
19/02:45am 23.8 WNW 7 11 1006.0 - 7.6 - Partly cloudy 3 - - - -
19/02:30am 24.6 WNW 13 23 1006.3 - 6.0 - Partly cloudy 4 - - - -
19/02:28am 25.0 NW 14 23 1006.3 - 5.6 - Partly cloudy 6 - - - -
19/02:25am 26.2 NNW 13 23 1006.3 - 5.2 - Partly cloudy 10 - - - -

Other Formats:

Comma delimited format used in spreadsheet applications
http://www.bom.gov.au/fwo/IDD60701/IDD60701.94150.axf

JavaScript Object Notation format (JSON) in row-major order
http://www.bom.gov.au/fwo/IDD60701/IDD60701.94150.json